sensor_id;sensor_type;location;lat;lon;timestamp;temperature;humidity
8105;DHT22;4095;48.942;9.104;2023-04-24T00:02:03;13.90;99.90
8105;DHT22;4095;48.942;9.104;2023-04-24T00:04:29;14.00;99.90
8105;DHT22;4095;48.942;9.104;2023-04-24T00:06:57;14.00;99.90
8105;DHT22;4095;48.942;9.104;2023-04-24T00:09:25;14.00;99.90
8105;DHT22;4095;48.942;9.104;2023-04-24T00:11:52;14.00;99.90
8105;DHT22;4095;48.942;9.104;2023-04-24T00:14:17;14.10;99.90
8105;DHT22;4095;48.942;9.104;2023-04-24T00:16:43;14.10;99.90
8105;DHT22;4095;48.942;9.104;2023-04-24T00:19:09;14.10;99.90
8105;DHT22;4095;48.942;9.104;2023-04-24T00:21:34;14.10;99.90
8105;DHT22;4095;48.942;9.104;2023-04-24T00:24:00;14.10;99.90
8105;DHT22;4095;48.942;9.104;2023-04-24T00:26:26;14.10;99.90
8105;DHT22;4095;48.942;9.104;2023-04-24T00:28:51;14.10;99.90
8105;DHT22;4095;48.942;9.104;2023-04-24T00:31:17;14.10;99.90
8105;DHT22;4095;48.942;9.104;2023-04-24T00:33:42;14.10;99.90
8105;DHT22;4095;48.942;9.104;2023-04-24T00:36:08;14.10;99.90
8105;DHT22;4095;48.942;9.104;2023-04-24T00:38:33;14.20;99.90
8105;DHT22;4095;48.942;9.104;2023-04-24T00:40:59;14.10;99.90
8105;DHT22;4095;48.942;9.104;2023-04-24T00:43:25;14.10;99.90
8105;DHT22;4095;48.942;9.104;2023-04-24T00:45:51;14.10;99.90
8105;DHT22;4095;48.942;9.104;2023-04-24T00:48:16;14.10;99.90
8105;DHT22;4095;48.942;9.104;2023-04-24T00:50:42;14.10;99.90
8105;DHT22;4095;48.942;9.104;2023-04-24T00:53:08;14.10;99.90
8105;DHT22;4095;48.942;9.104;2023-04-24T00:55:33;14.10;99.90
8105;DHT22;4095;48.942;9.104;2023-04-24T00:57:59;14.20;99.90
8105;DHT22;4095;48.942;9.104;2023-04-24T01:00:25;14.10;99.90
8105;DHT22;4095;48.942;9.104;2023-04-24T01:02:51;14.10;99.90
8105;DHT22;4095;48.942;9.104;2023-04-24T01:05:17;14.10;99.90
8105;DHT22;4095;48.942;9.104;2023-04-24T01:07:45;14.10;99.90
8105;DHT22;4095;48.942;9.104;2023-04-24T01:10:15;14.10;99.90
8105;DHT22;4095;48.942;9.104;2023-04-24T01:12:40;14.10;99.90
8105;DHT22;4095;48.942;9.104;2023-04-24T01:15:06;14.10;99.90
8105;DHT22;4095;48.942;9.104;2023-04-24T01:17:33;14.10;99.90
8105;DHT22;4095;48.942;9.104;2023-04-24T01:19:59;14.10;99.90
8105;DHT22;4095;48.942;9.104;2023-04-24T01:22:26;14.10;99.90
8105;DHT22;4095;48.942;9.104;2023-04-24T01:24:52;14.00;99.90
8105;DHT22;4095;48.942;9.104;2023-04-24T01:27:19;14.10;99.90
8105;DHT22;4095;48.942;9.104;2023-04-24T01:29:45;14.00;99.90
8105;DHT22;4095;48.942;9.104;2023-04-24T01:32:11;14.00;99.90
8105;DHT22;4095;48.942;9.104;2023-04-24T01:34:37;14.00;99.90
8105;DHT22;4095;48.942;9.104;2023-04-24T01:37:03;14.00;99.90
8105;DHT22;4095;48.942;9.104;2023-04-24T01:39:30;14.00;99.90
8105;DHT22;4095;48.942;9.104;2023-04-24T01:41:56;13.90;99.90
8105;DHT22;4095;48.942;9.104;2023-04-24T01:44:23;13.90;99.90
8105;DHT22;4095;48.942;9.104;2023-04-24T01:46:48;13.90;99.90
8105;DHT22;4095;48.942;9.104;2023-04-24T01:49:14;13.90;99.90
8105;DHT22;4095;48.942;9.104;2023-04-24T01:51:40;13.80;99.90
8105;DHT22;4095;48.942;9.104;2023-04-24T01:54:05;13.80;99.90
8105;DHT22;4095;48.942;9.104;2023-04-24T01:56:33;13.80;99.90
8105;DHT22;4095;48.942;9.104;2023-04-24T01:59:00;13.80;99.90
8105;DHT22;4095;48.942;9.104;2023-04-24T02:01:31;13.80;99.90
8105;DHT22;4095;48.942;9.104;2023-04-24T02:03:58;13.80;99.90
8105;DHT22;4095;48.942;9.104;2023-04-24T02:06:23;13.80;99.90
8105;DHT22;4095;48.942;9.104;2023-04-24T02:08:49;13.70;99.90
8105;DHT22;4095;48.942;9.104;2023-04-24T02:11:14;13.70;99.90
8105;DHT22;4095;48.942;9.104;2023-04-24T02:13:40;13.70;99.90
8105;DHT22;4095;48.942;9.104;2023-04-24T02:16:06;13.70;99.90
8105;DHT22;4095;48.942;9.104;2023-04-24T02:18:31;13.80;99.90
8105;DHT22;4095;48.942;9.104;2023-04-24T02:20:57;13.70;99.90
8105;DHT22;4095;48.942;9.104;2023-04-24T02:23:22;13.70;99.90
8105;DHT22;4095;48.942;9.104;2023-04-24T02:25:48;13.80;99.90
8105;DHT22;4095;48.942;9.104;2023-04-24T02:28:14;13.80;99.90
8105;DHT22;4095;48.942;9.104;2023-04-24T02:30:39;13.80;99.90
8105;DHT22;4095;48.942;9.104;2023-04-24T02:33:05;13.80;99.90
8105;DHT22;4095;48.942;9.104;2023-04-24T02:35:30;13.80;99.90
8105;DHT22;4095;48.942;9.104;2023-04-24T02:37:56;13.80;99.90
8105;DHT22;4095;48.942;9.104;2023-04-24T02:40:21;13.80;99.90
8105;DHT22;4095;48.942;9.104;2023-04-24T02:42:47;13.80;99.90
8105;DHT22;4095;48.942;9.104;2023-04-24T02:45:13;13.80;99.90
8105;DHT22;4095;48.942;9.104;2023-04-24T02:47:38;13.80;99.90
8105;DHT22;4095;48.942;9.104;2023-04-24T02:50:04;13.70;99.90
8105;DHT22;4095;48.942;9.104;2023-04-24T02:52:30;13.70;99.90
8105;DHT22;4095;48.942;9.104;2023-04-24T02:54:55;13.70;99.90
8105;DHT22;4095;48.942;9.104;2023-04-24T02:57:21;13.60;99.90
8105;DHT22;4095;48.942;9.104;2023-04-24T02:59:46;13.60;99.90
8105;DHT22;4095;48.942;9.104;2023-04-24T03:02:12;13.60;99.90
8105;DHT22;4095;48.942;9.104;2023-04-24T03:04:38;13.60;99.90
8105;DHT22;4095;48.942;9.104;2023-04-24T03:07:05;13.50;99.90
8105;DHT22;4095;48.942;9.104;2023-04-24T03:09:31;13.50;99.90
8105;DHT22;4095;48.942;9.104;2023-04-24T03:11:56;13.50;99.90
8105;DHT22;4095;48.942;9.104;2023-04-24T03:14:22;13.50;99.90
8105;DHT22;4095;48.942;9.104;2023-04-24T03:16:48;13.50;99.90
8105;DHT22;4095;48.942;9.104;2023-04-24T03:19:13;13.50;99.90
8105;DHT22;4095;48.942;9.104;2023-04-24T03:21:39;13.50;99.90
8105;DHT22;4095;48.942;9.104;2023-04-24T03:24:09;13.40;99.90
8105;DHT22;4095;48.942;9.104;2023-04-24T03:26:35;13.40;99.90
8105;DHT22;4095;48.942;9.104;2023-04-24T03:29:01;13.40;99.90
8105;DHT22;4095;48.942;9.104;2023-04-24T03:31:26;13.40;99.90
8105;DHT22;4095;48.942;9.104;2023-04-24T03:33:52;13.30;99.90
8105;DHT22;4095;48.942;9.104;2023-04-24T03:36:18;13.30;99.90
8105;DHT22;4095;48.942;9.104;2023-04-24T03:38:44;13.30;99.90
8105;DHT22;4095;48.942;9.104;2023-04-24T03:41:10;13.30;99.90
8105;DHT22;4095;48.942;9.104;2023-04-24T03:43:36;13.20;99.90
8105;DHT22;4095;48.942;9.104;2023-04-24T03:46:02;13.20;99.90
8105;DHT22;4095;48.942;9.104;2023-04-24T03:48:28;13.30;99.90
8105;DHT22;4095;48.942;9.104;2023-04-24T03:50:53;13.20;99.90
8105;DHT22;4095;48.942;9.104;2023-04-24T03:53:19;13.20;99.90
8105;DHT22;4095;48.942;9.104;2023-04-24T03:55:45;13.30;99.90
8105;DHT22;4095;48.942;9.104;2023-04-24T03:58:11;13.30;99.90
8105;DHT22;4095;48.942;9.104;2023-04-24T04:00:37;13.40;99.90
8105;DHT22;4095;48.942;9.104;2023-04-24T04:03:03;13.40;99.90
8105;DHT22;4095;48.942;9.104;2023-04-24T04:05:29;13.50;99.90
8105;DHT22;4095;48.942;9.104;2023-04-24T04:07:54;13.50;99.90
8105;DHT22;4095;48.942;9.104;2023-04-24T04:10:20;13.50;99.90
8105;DHT22;4095;48.942;9.104;2023-04-24T04:12:46;13.40;99.90
8105;DHT22;4095;48.942;9.104;2023-04-24T04:15:11;13.30;99.90
8105;DHT22;4095;48.942;9.104;2023-04-24T04:17:37;13.10;99.90
8105;DHT22;4095;48.942;9.104;2023-04-24T04:20:04;13.00;99.90
8105;DHT22;4095;48.942;9.104;2023-04-24T04:22:34;12.80;99.90
8105;DHT22;4095;48.942;9.104;2023-04-24T04:24:59;12.70;99.90
8105;DHT22;4095;48.942;9.104;2023-04-24T04:27:25;12.60;99.90
8105;DHT22;4095;48.942;9.104;2023-04-24T04:29:52;12.60;99.90
8105;DHT22;4095;48.942;9.104;2023-04-24T04:32:17;12.50;99.90
8105;DHT22;4095;48.942;9.104;2023-04-24T04:34:43;12.60;99.90
8105;DHT22;4095;48.942;9.104;2023-04-24T04:37:11;12.50;99.90
8105;DHT22;4095;48.942;9.104;2023-04-24T04:39:38;12.50;99.90
8105;DHT22;4095;48.942;9.104;2023-04-24T04:42:03;12.40;99.90
8105;DHT22;4095;48.942;9.104;2023-04-24T04:44:29;12.40;99.90
8105;DHT22;4095;48.942;9.104;2023-04-24T04:46:56;12.40;99.90
8105;DHT22;4095;48.942;9.104;2023-04-24T04:49:22;12.40;99.90
8105;DHT22;4095;48.942;9.104;2023-04-24T04:51:49;12.50;99.90
8105;DHT22;4095;48.942;9.104;2023-04-24T04:54:16;12.50;99.90
8105;DHT22;4095;48.942;9.104;2023-04-24T04:56:41;12.50;99.90
8105;DHT22;4095;48.942;9.104;2023-04-24T04:59:07;12.50;99.90
8105;DHT22;4095;48.942;9.104;2023-04-24T05:01:33;12.50;99.90
8105;DHT22;4095;48.942;9.104;2023-04-24T05:03:58;12.60;99.90
8105;DHT22;4095;48.942;9.104;2023-04-24T05:06:24;12.50;99.90
8105;DHT22;4095;48.942;9.104;2023-04-24T05:08:50;12.50;99.90
8105;DHT22;4095;48.942;9.104;2023-04-24T05:11:16;12.50;99.90
8105;DHT22;4095;48.942;9.104;2023-04-24T05:13:42;12.50;99.90
8105;DHT22;4095;48.942;9.104;2023-04-24T05:16:07;12.40;99.90
8105;DHT22;4095;48.942;9.104;2023-04-24T05:18:33;12.30;99.90
8105;DHT22;4095;48.942;9.104;2023-04-24T05:20:59;12.30;99.90
8105;DHT22;4095;48.942;9.104;2023-04-24T05:23:24;12.40;99.90
8105;DHT22;4095;48.942;9.104;2023-04-24T05:25:50;12.40;99.90
8105;DHT22;4095;48.942;9.104;2023-04-24T05:28:15;12.50;99.90
8105;DHT22;4095;48.942;9.104;2023-04-24T05:30:41;12.40;99.90
8105;DHT22;4095;48.942;9.104;2023-04-24T05:33:07;12.40;99.90
8105;DHT22;4095;48.942;9.104;2023-04-24T05:35:33;12.50;99.90
8105;DHT22;4095;48.942;9.104;2023-04-24T05:37:59;12.40;99.90
8105;DHT22;4095;48.942;9.104;2023-04-24T05:40:25;12.40;99.90
8105;DHT22;4095;48.942;9.104;2023-04-24T05:42:50;12.30;99.90
8105;DHT22;4095;48.942;9.104;2023-04-24T05:45:16;12.30;99.90
8105;DHT22;4095;48.942;9.104;2023-04-24T05:47:43;12.30;99.90
8105;DHT22;4095;48.942;9.104;2023-04-24T05:50:12;12.20;99.90
8105;DHT22;4095;48.942;9.104;2023-04-24T05:52:38;12.30;99.90
8105;DHT22;4095;48.942;9.104;2023-04-24T05:55:03;12.40;99.90
8105;DHT22;4095;48.942;9.104;2023-04-24T05:57:29;12.50;99.90
8105;DHT22;4095;48.942;9.104;2023-04-24T05:59:55;12.60;99.90
8105;DHT22;4095;48.942;9.104;2023-04-24T06:02:21;12.60;99.90
8105;DHT22;4095;48.942;9.104;2023-04-24T06:04:47;12.60;99.90
8105;DHT22;4095;48.942;9.104;2023-04-24T06:07:13;12.60;99.90
8105;DHT22;4095;48.942;9.104;2023-04-24T06:09:38;12.60;99.90
8105;DHT22;4095;48.942;9.104;2023-04-24T06:12:04;12.60;99.90
8105;DHT22;4095;48.942;9.104;2023-04-24T06:14:29;12.80;99.90
8105;DHT22;4095;48.942;9.104;2023-04-24T06:16:55;12.90;99.90
8105;DHT22;4095;48.942;9.104;2023-04-24T06:19:21;12.90;99.90
8105;DHT22;4095;48.942;9.104;2023-04-24T06:21:46;13.00;99.90
8105;DHT22;4095;48.942;9.104;2023-04-24T06:24:14;13.10;99.90
8105;DHT22;4095;48.942;9.104;2023-04-24T06:26:41;13.10;99.90
8105;DHT22;4095;48.942;9.104;2023-04-24T06:29:07;13.20;99.90
8105;DHT22;4095;48.942;9.104;2023-04-24T06:31:32;13.20;99.90
8105;DHT22;4095;48.942;9.104;2023-04-24T06:34:02;13.30;99.90
8105;DHT22;4095;48.942;9.104;2023-04-24T06:36:28;13.40;99.90
8105;DHT22;4095;48.942;9.104;2023-04-24T06:38:54;13.40;99.90
8105;DHT22;4095;48.942;9.104;2023-04-24T06:41:20;13.40;99.90
8105;DHT22;4095;48.942;9.104;2023-04-24T06:43:45;13.50;99.90
8105;DHT22;4095;48.942;9.104;2023-04-24T06:46:11;13.50;99.90
8105;DHT22;4095;48.942;9.104;2023-04-24T06:48:37;13.60;99.90
8105;DHT22;4095;48.942;9.104;2023-04-24T06:51:03;13.60;99.90
8105;DHT22;4095;48.942;9.104;2023-04-24T06:53:28;13.80;99.90
8105;DHT22;4095;48.942;9.104;2023-04-24T06:55:54;13.90;99.90
8105;DHT22;4095;48.942;9.104;2023-04-24T06:58:20;13.90;99.90
8105;DHT22;4095;48.942;9.104;2023-04-24T07:00:45;14.00;99.90
8105;DHT22;4095;48.942;9.104;2023-04-24T07:03:11;14.00;99.90
8105;DHT22;4095;48.942;9.104;2023-04-24T07:05:37;14.10;99.90
8105;DHT22;4095;48.942;9.104;2023-04-24T07:08:03;14.20;99.90
8105;DHT22;4095;48.942;9.104;2023-04-24T07:10:29;14.30;99.90
8105;DHT22;4095;48.942;9.104;2023-04-24T07:12:55;14.50;99.90
8105;DHT22;4095;48.942;9.104;2023-04-24T07:15:22;14.60;99.90
8105;DHT22;4095;48.942;9.104;2023-04-24T07:17:48;14.70;99.90
8105;DHT22;4095;48.942;9.104;2023-04-24T07:20:14;14.70;99.90
8105;DHT22;4095;48.942;9.104;2023-04-24T07:22:40;14.80;99.90
8105;DHT22;4095;48.942;9.104;2023-04-24T07:25:06;14.90;99.90
8105;DHT22;4095;48.942;9.104;2023-04-24T07:27:33;14.80;99.20
8105;DHT22;4095;48.942;9.104;2023-04-24T07:29:59;14.80;99.90
8105;DHT22;4095;48.942;9.104;2023-04-24T07:32:25;14.90;99.90
8105;DHT22;4095;48.942;9.104;2023-04-24T07:34:50;14.80;99.10
8105;DHT22;4095;48.942;9.104;2023-04-24T07:37:16;14.70;98.40
8105;DHT22;4095;48.942;9.104;2023-04-24T07:39:41;14.50;97.30
8105;DHT22;4095;48.942;9.104;2023-04-24T07:42:07;14.40;97.80
8105;DHT22;4095;48.942;9.104;2023-04-24T07:44:33;14.30;97.40
8105;DHT22;4095;48.942;9.104;2023-04-24T07:46:58;14.20;96.80
8105;DHT22;4095;48.942;9.104;2023-04-24T07:49:25;14.00;96.10
8105;DHT22;4095;48.942;9.104;2023-04-24T07:51:50;13.90;97.00
8105;DHT22;4095;48.942;9.104;2023-04-24T07:54:16;14.00;97.00
8105;DHT22;4095;48.942;9.104;2023-04-24T07:56:42;14.00;96.90
8105;DHT22;4095;48.942;9.104;2023-04-24T07:59:08;14.00;96.00
8105;DHT22;4095;48.942;9.104;2023-04-24T08:01:35;14.10;96.30
8105;DHT22;4095;48.942;9.104;2023-04-24T08:04:01;14.10;95.80
8105;DHT22;4095;48.942;9.104;2023-04-24T08:06:27;14.20;97.10
8105;DHT22;4095;48.942;9.104;2023-04-24T08:08:56;14.30;97.00
8105;DHT22;4095;48.942;9.104;2023-04-24T08:11:21;14.30;96.10
8105;DHT22;4095;48.942;9.104;2023-04-24T08:13:47;14.40;95.10
8105;DHT22;4095;48.942;9.104;2023-04-24T08:16:13;14.40;95.20
8105;DHT22;4095;48.942;9.104;2023-04-24T08:18:38;14.40;95.10
8105;DHT22;4095;48.942;9.104;2023-04-24T08:21:04;14.30;94.60
8105;DHT22;4095;48.942;9.104;2023-04-24T08:23:30;14.40;94.80
8105;DHT22;4095;48.942;9.104;2023-04-24T08:25:55;14.30;94.90
8105;DHT22;4095;48.942;9.104;2023-04-24T08:28:22;14.40;95.20
8105;DHT22;4095;48.942;9.104;2023-04-24T08:30:48;14.50;95.40
8105;DHT22;4095;48.942;9.104;2023-04-24T08:33:22;14.70;95.30
8105;DHT22;4095;48.942;9.104;2023-04-24T08:35:48;14.70;94.70
8105;DHT22;4095;48.942;9.104;2023-04-24T08:38:14;14.70;93.90
8105;DHT22;4095;48.942;9.104;2023-04-24T08:40:40;14.80;94.60
8105;DHT22;4095;48.942;9.104;2023-04-24T08:43:06;15.00;94.90
8105;DHT22;4095;48.942;9.104;2023-04-24T08:45:32;15.10;94.70
8105;DHT22;4095;48.942;9.104;2023-04-24T08:47:58;15.30;94.20
8105;DHT22;4095;48.942;9.104;2023-04-24T08:50:25;15.50;94.50
8105;DHT22;4095;48.942;9.104;2023-04-24T08:52:52;15.60;93.70
8105;DHT22;4095;48.942;9.104;2023-04-24T08:55:20;15.60;93.50
8105;DHT22;4095;48.942;9.104;2023-04-24T08:57:51;15.70;93.50
8105;DHT22;4095;48.942;9.104;2023-04-24T09:00:19;15.60;93.20
8105;DHT22;4095;48.942;9.104;2023-04-24T09:02:47;15.50;93.80
8105;DHT22;4095;48.942;9.104;2023-04-24T09:05:14;15.60;93.90
8105;DHT22;4095;48.942;9.104;2023-04-24T09:07:45;15.70;93.30
8105;DHT22;4095;48.942;9.104;2023-04-24T09:10:15;15.50;94.10
8105;DHT22;4095;48.942;9.104;2023-04-24T09:12:41;15.40;93.50
8105;DHT22;4095;48.942;9.104;2023-04-24T09:15:08;15.20;94.10
8105;DHT22;4095;48.942;9.104;2023-04-24T09:17:33;15.10;93.60
8105;DHT22;4095;48.942;9.104;2023-04-24T09:20:00;14.90;93.40
8105;DHT22;4095;48.942;9.104;2023-04-24T09:22:30;15.10;94.00
8105;DHT22;4095;48.942;9.104;2023-04-24T09:25:08;15.30;92.90
8105;DHT22;4095;48.942;9.104;2023-04-24T09:27:35;15.20;92.40
8105;DHT22;4095;48.942;9.104;2023-04-24T09:30:01;15.30;92.90
8105;DHT22;4095;48.942;9.104;2023-04-24T09:32:27;15.50;92.30
8105;DHT22;4095;48.942;9.104;2023-04-24T09:35:14;15.70;92.10
8105;DHT22;4095;48.942;9.104;2023-04-24T09:37:46;15.90;91.90
8105;DHT22;4095;48.942;9.104;2023-04-24T09:40:17;15.90;93.20
8105;DHT22;4095;48.942;9.104;2023-04-24T09:42:56;15.90;92.90
8105;DHT22;4095;48.942;9.104;2023-04-24T09:45:36;15.90;93.80
8105;DHT22;4095;48.942;9.104;2023-04-24T09:48:02;15.80;92.80
8105;DHT22;4095;48.942;9.104;2023-04-24T09:50:30;15.50;92.10
8105;DHT22;4095;48.942;9.104;2023-04-24T09:53:06;15.50;92.00
8105;DHT22;4095;48.942;9.104;2023-04-24T09:55:39;15.60;92.30
8105;DHT22;4095;48.942;9.104;2023-04-24T09:58:07;15.60;92.20
8105;DHT22;4095;48.942;9.104;2023-04-24T10:00:33;15.70;91.50
8105;DHT22;4095;48.942;9.104;2023-04-24T10:03:04;16.00;91.90
8105;DHT22;4095;48.942;9.104;2023-04-24T10:05:35;16.30;92.00
8105;DHT22;4095;48.942;9.104;2023-04-24T10:08:03;16.40;91.10
8105;DHT22;4095;48.942;9.104;2023-04-24T10:10:30;16.30;91.00
8105;DHT22;4095;48.942;9.104;2023-04-24T10:12:56;16.10;89.80
8105;DHT22;4095;48.942;9.104;2023-04-24T10:15:22;16.00;89.10
8105;DHT22;4095;48.942;9.104;2023-04-24T10:17:49;15.70;89.60
8105;DHT22;4095;48.942;9.104;2023-04-24T10:20:23;15.50;90.30
8105;DHT22;4095;48.942;9.104;2023-04-24T10:22:51;15.40;90.80
8105;DHT22;4095;48.942;9.104;2023-04-24T10:25:23;15.30;90.40
8105;DHT22;4095;48.942;9.104;2023-04-24T10:27:50;15.30;91.40
8105;DHT22;4095;48.942;9.104;2023-04-24T10:30:17;15.30;91.70
8105;DHT22;4095;48.942;9.104;2023-04-24T10:32:43;15.10;91.00
8105;DHT22;4095;48.942;9.104;2023-04-24T10:35:13;14.90;91.40
8105;DHT22;4095;48.942;9.104;2023-04-24T10:37:51;14.70;91.40
8105;DHT22;4095;48.942;9.104;2023-04-24T10:40:26;14.70;92.30
8105;DHT22;4095;48.942;9.104;2023-04-24T10:42:53;14.60;92.20
8105;DHT22;4095;48.942;9.104;2023-04-24T10:45:20;14.60;92.30
8105;DHT22;4095;48.942;9.104;2023-04-24T10:48:08;14.60;92.20
8105;DHT22;4095;48.942;9.104;2023-04-24T10:50:51;14.60;92.70
8105;DHT22;4095;48.942;9.104;2023-04-24T10:53:22;14.70;92.70
8105;DHT22;4095;48.942;9.104;2023-04-24T10:55:51;15.10;92.70
8105;DHT22;4095;48.942;9.104;2023-04-24T10:58:24;15.30;92.30
8105;DHT22;4095;48.942;9.104;2023-04-24T11:00:58;15.60;91.60
8105;DHT22;4095;48.942;9.104;2023-04-24T11:03:34;15.90;91.60
8105;DHT22;4095;48.942;9.104;2023-04-24T11:06:08;16.10;91.30
8105;DHT22;4095;48.942;9.104;2023-04-24T11:08:44;15.80;90.90
8105;DHT22;4095;48.942;9.104;2023-04-24T11:11:12;15.50;91.50
8105;DHT22;4095;48.942;9.104;2023-04-24T11:16:32;15.80;92.00
8105;DHT22;4095;48.942;9.104;2023-04-24T11:21:50;16.00;91.30
8105;DHT22;4095;48.942;9.104;2023-04-24T11:24:39;15.90;90.50
8105;DHT22;4095;48.942;9.104;2023-04-24T11:27:06;15.80;91.10
8105;DHT22;4095;48.942;9.104;2023-04-24T11:29:41;15.80;90.60
8105;DHT22;4095;48.942;9.104;2023-04-24T11:32:19;15.80;90.70
8105;DHT22;4095;48.942;9.104;2023-04-24T11:34:49;15.80;90.90
8105;DHT22;4095;48.942;9.104;2023-04-24T11:37:15;15.80;91.40
8105;DHT22;4095;48.942;9.104;2023-04-24T11:39:41;15.80;91.20
8105;DHT22;4095;48.942;9.104;2023-04-24T11:42:08;16.00;92.30
8105;DHT22;4095;48.942;9.104;2023-04-24T11:44:35;16.10;91.60
8105;DHT22;4095;48.942;9.104;2023-04-24T11:47:05;16.10;91.30
8105;DHT22;4095;48.942;9.104;2023-04-24T11:49:30;16.10;91.20
8105;DHT22;4095;48.942;9.104;2023-04-24T11:51:56;16.00;90.40
8105;DHT22;4095;48.942;9.104;2023-04-24T11:54:22;15.80;90.50
8105;DHT22;4095;48.942;9.104;2023-04-24T11:56:49;15.70;90.20
8105;DHT22;4095;48.942;9.104;2023-04-24T11:59:15;15.50;90.40
8105;DHT22;4095;48.942;9.104;2023-04-24T12:01:47;15.40;90.70
8105;DHT22;4095;48.942;9.104;2023-04-24T12:04:14;15.30;90.40
8105;DHT22;4095;48.942;9.104;2023-04-24T12:06:58;15.30;91.10
8105;DHT22;4095;48.942;9.104;2023-04-24T12:09:24;15.50;92.00
8105;DHT22;4095;48.942;9.104;2023-04-24T12:11:54;15.50;91.80
8105;DHT22;4095;48.942;9.104;2023-04-24T12:14:22;15.50;91.20
8105;DHT22;4095;48.942;9.104;2023-04-24T12:16:49;15.50;91.50
8105;DHT22;4095;48.942;9.104;2023-04-24T12:19:22;15.50;91.70
8105;DHT22;4095;48.942;9.104;2023-04-24T12:22:05;15.40;91.80
8105;DHT22;4095;48.942;9.104;2023-04-24T12:24:31;15.30;91.80
8105;DHT22;4095;48.942;9.104;2023-04-24T12:26:59;15.20;91.90
8105;DHT22;4095;48.942;9.104;2023-04-24T12:29:26;15.00;91.00
8105;DHT22;4095;48.942;9.104;2023-04-24T12:31:52;14.80;91.90
8105;DHT22;4095;48.942;9.104;2023-04-24T12:34:23;14.70;92.30
8105;DHT22;4095;48.942;9.104;2023-04-24T12:36:50;14.60;92.50
8105;DHT22;4095;48.942;9.104;2023-04-24T12:39:19;14.60;93.30
8105;DHT22;4095;48.942;9.104;2023-04-24T12:41:57;14.70;93.50
8105;DHT22;4095;48.942;9.104;2023-04-24T12:44:34;15.00;93.70
8105;DHT22;4095;48.942;9.104;2023-04-24T12:47:00;15.10;94.00
8105;DHT22;4095;48.942;9.104;2023-04-24T12:49:27;15.10;94.10
8105;DHT22;4095;48.942;9.104;2023-04-24T12:51:53;15.10;94.40
8105;DHT22;4095;48.942;9.104;2023-04-24T12:54:19;15.10;94.30
8105;DHT22;4095;48.942;9.104;2023-04-24T12:56:44;14.90;94.40
8105;DHT22;4095;48.942;9.104;2023-04-24T12:59:10;14.90;95.00
8105;DHT22;4095;48.942;9.104;2023-04-24T13:01:36;14.90;95.40
8105;DHT22;4095;48.942;9.104;2023-04-24T13:04:01;14.90;94.80
8105;DHT22;4095;48.942;9.104;2023-04-24T13:06:27;15.00;95.20
8105;DHT22;4095;48.942;9.104;2023-04-24T13:08:53;15.10;94.90
8105;DHT22;4095;48.942;9.104;2023-04-24T13:11:20;15.10;94.90
8105;DHT22;4095;48.942;9.104;2023-04-24T13:13:47;15.00;94.00
8105;DHT22;4095;48.942;9.104;2023-04-24T13:16:12;15.20;94.20
8105;DHT22;4095;48.942;9.104;2023-04-24T13:18:38;15.50;93.70
8105;DHT22;4095;48.942;9.104;2023-04-24T13:21:03;15.60;93.70
8105;DHT22;4095;48.942;9.104;2023-04-24T13:23:29;15.80;92.90
8105;DHT22;4095;48.942;9.104;2023-04-24T13:25:54;15.90;93.20
8105;DHT22;4095;48.942;9.104;2023-04-24T13:28:23;15.90;92.90
8105;DHT22;4095;48.942;9.104;2023-04-24T13:30:48;15.70;92.40
8105;DHT22;4095;48.942;9.104;2023-04-24T13:33:14;15.60;92.90
8105;DHT22;4095;48.942;9.104;2023-04-24T13:35:40;15.70;92.40
8105;DHT22;4095;48.942;9.104;2023-04-24T13:38:05;15.60;92.50
8105;DHT22;4095;48.942;9.104;2023-04-24T13:40:32;15.30;92.40
8105;DHT22;4095;48.942;9.104;2023-04-24T13:42:58;15.30;93.00
8105;DHT22;4095;48.942;9.104;2023-04-24T13:45:23;15.30;92.70
8105;DHT22;4095;48.942;9.104;2023-04-24T13:47:49;15.40;92.90
8105;DHT22;4095;48.942;9.104;2023-04-24T13:50:14;15.40;92.90
8105;DHT22;4095;48.942;9.104;2023-04-24T13:52:40;15.50;92.30
8105;DHT22;4095;48.942;9.104;2023-04-24T13:55:06;15.50;92.50
8105;DHT22;4095;48.942;9.104;2023-04-24T13:57:32;15.50;92.10
8105;DHT22;4095;48.942;9.104;2023-04-24T13:59:58;15.50;92.40
8105;DHT22;4095;48.942;9.104;2023-04-24T14:02:27;15.60;92.80
8105;DHT22;4095;48.942;9.104;2023-04-24T14:04:53;15.70;92.20
8105;DHT22;4095;48.942;9.104;2023-04-24T14:07:18;15.80;91.60
8105;DHT22;4095;48.942;9.104;2023-04-24T14:09:44;15.70;90.90
8105;DHT22;4095;48.942;9.104;2023-04-24T14:12:09;15.70;91.10
8105;DHT22;4095;48.942;9.104;2023-04-24T14:14:35;15.60;91.00
8105;DHT22;4095;48.942;9.104;2023-04-24T14:17:01;15.40;90.80
8105;DHT22;4095;48.942;9.104;2023-04-24T14:19:26;15.20;91.20
8105;DHT22;4095;48.942;9.104;2023-04-24T14:21:52;15.10;91.70
8105;DHT22;4095;48.942;9.104;2023-04-24T14:24:18;15.10;91.50
8105;DHT22;4095;48.942;9.104;2023-04-24T14:26:44;15.10;91.70
8105;DHT22;4095;48.942;9.104;2023-04-24T14:29:10;15.20;91.30
8105;DHT22;4095;48.942;9.104;2023-04-24T14:31:35;15.20;91.90
8105;DHT22;4095;48.942;9.104;2023-04-24T14:34:01;15.40;92.10
8105;DHT22;4095;48.942;9.104;2023-04-24T14:36:26;15.40;92.00
8105;DHT22;4095;48.942;9.104;2023-04-24T14:38:52;15.60;92.20
8105;DHT22;4095;48.942;9.104;2023-04-24T14:41:17;15.60;91.00
8105;DHT22;4095;48.942;9.104;2023-04-24T14:43:43;15.50;91.60
8105;DHT22;4095;48.942;9.104;2023-04-24T14:46:08;15.50;91.20
8105;DHT22;4095;48.942;9.104;2023-04-24T14:48:34;15.60;91.40
8105;DHT22;4095;48.942;9.104;2023-04-24T14:51:00;15.60;90.60
8105;DHT22;4095;48.942;9.104;2023-04-24T14:53:25;15.60;90.70
8105;DHT22;4095;48.942;9.104;2023-04-24T14:55:51;15.60;90.20
8105;DHT22;4095;48.942;9.104;2023-04-24T14:58:16;15.60;90.40
8105;DHT22;4095;48.942;9.104;2023-04-24T15:00:42;15.50;90.20
8105;DHT22;4095;48.942;9.104;2023-04-24T15:03:08;15.40;90.20
8105;DHT22;4095;48.942;9.104;2023-04-24T15:05:33;15.50;90.30
8105;DHT22;4095;48.942;9.104;2023-04-24T15:07:59;15.40;90.60
8105;DHT22;4095;48.942;9.104;2023-04-24T15:10:25;15.30;90.40
8105;DHT22;4095;48.942;9.104;2023-04-24T15:12:51;15.30;91.10
8105;DHT22;4095;48.942;9.104;2023-04-24T15:15:17;15.30;90.60
8105;DHT22;4095;48.942;9.104;2023-04-24T15:17:42;15.20;90.60
8105;DHT22;4095;48.942;9.104;2023-04-24T15:20:08;15.10;90.80
8105;DHT22;4095;48.942;9.104;2023-04-24T15:22:34;15.00;90.40
8105;DHT22;4095;48.942;9.104;2023-04-24T15:25:00;14.90;91.10
8105;DHT22;4095;48.942;9.104;2023-04-24T15:27:26;14.80;90.70
8105;DHT22;4095;48.942;9.104;2023-04-24T15:29:51;14.80;91.20
8105;DHT22;4095;48.942;9.104;2023-04-24T15:32:18;14.90;91.50
8105;DHT22;4095;48.942;9.104;2023-04-24T15:34:44;15.00;91.20
8105;DHT22;4095;48.942;9.104;2023-04-24T15:37:10;15.20;92.00
8105;DHT22;4095;48.942;9.104;2023-04-24T15:39:35;15.30;92.40
8105;DHT22;4095;48.942;9.104;2023-04-24T15:42:02;15.40;91.80
8105;DHT22;4095;48.942;9.104;2023-04-24T15:44:27;15.50;92.00
8105;DHT22;4095;48.942;9.104;2023-04-24T15:46:53;15.40;91.40
8105;DHT22;4095;48.942;9.104;2023-04-24T15:49:18;15.40;91.20
8105;DHT22;4095;48.942;9.104;2023-04-24T15:51:44;15.40;91.50
8105;DHT22;4095;48.942;9.104;2023-04-24T15:54:09;15.30;91.70
8105;DHT22;4095;48.942;9.104;2023-04-24T15:56:35;15.30;91.40
8105;DHT22;4095;48.942;9.104;2023-04-24T15:59:01;15.20;91.10
8105;DHT22;4095;48.942;9.104;2023-04-24T16:01:29;15.20;91.40
8105;DHT22;4095;48.942;9.104;2023-04-24T16:03:55;15.20;90.90
8105;DHT22;4095;48.942;9.104;2023-04-24T16:06:21;15.20;91.70